Time;durP1;ratioP1;P1;durP2;ratioP2;P2;SDS_P1;SDS_P2;PMS_P1;PMS_P2;Temp;Humidity;BMP_temperature;BMP_pressure;BME280_temperature;BME280_humidity;BME280_pressure;Samples;Min_cycle;Max_cycle;Signal;HPM_P1;HPM_P2
2022/11/21 00:01:57;;;;;;;1.27;0.82;;;19.40;56.30;;;;;;6300896;28;20031;-66
2022/11/21 00:04:58;;;;;;;0.85;0.70;;;19.40;56.20;;;;;;6293660;28;20414;-65
2022/11/21 00:07:58;;;;;;;1.15;0.60;;;19.40;56.30;;;;;;6317918;28;20073;-66
2022/11/21 00:10:59;;;;;;;1.13;0.90;;;19.40;56.30;;;;;;6310441;28;20032;-67
2022/11/21 00:14:00;;;;;;;1.23;0.90;;;19.40;56.30;;;;;;6318070;28;20068;-67
2022/11/21 00:17:01;;;;;;;1.13;0.80;;;19.40;56.30;;;;;;6301259;28;20459;-66
2022/11/21 00:20:01;;;;;;;1.00;0.80;;;19.40;56.30;;;;;;6292751;28;20051;-66
2022/11/21 00:23:02;;;;;;;1.10;0.90;;;19.40;56.30;;;;;;6316896;28;20032;-66
2022/11/21 00:26:08;;;;;;;1.17;0.70;;;19.40;57.00;;;;;;6325129;28;20498;-67
2022/11/21 00:29:08;;;;;;;1.20;0.82;;;19.40;56.30;;;;;;6317374;28;20467;-67
2022/11/21 00:32:09;;;;;;;1.45;0.77;;;19.40;56.10;;;;;;6302657;28;20025;-67
2022/11/21 00:35:09;;;;;;;2.10;0.88;;;19.40;56.20;;;;;;6292496;28;20092;-67
2022/11/21 00:38:10;;;;;;;1.17;0.82;;;19.40;56.30;;;;;;6315695;28;20024;-66
2022/11/21 00:41:11;;;;;;;1.10;0.90;;;19.40;56.30;;;;;;6311087;28;20029;-66
2022/11/21 00:44:11;;;;;;;3.45;0.82;;;19.40;56.30;;;;;;6292363;28;20024;-65
2022/11/21 00:47:12;;;;;;;1.02;0.82;;;19.40;56.20;;;;;;6306018;28;20024;-66
2022/11/21 00:50:12;;;;;;;1.08;0.88;;;19.40;56.30;;;;;;6317341;28;20020;-66
2022/11/21 00:53:13;;;;;;;1.60;1.10;;;19.40;56.20;;;;;;6294892;28;20059;-66
2022/11/21 00:56:14;;;;;;;1.27;0.80;;;19.40;56.20;;;;;;6296351;28;20066;-66
2022/11/21 00:59:14;;;;;;;1.00;0.70;;;19.40;56.30;;;;;;6317016;28;20020;-66
2022/11/21 01:02:15;;;;;;;1.40;0.90;;;19.40;56.30;;;;;;6305167;28;20036;-66
2022/11/21 01:05:15;;;;;;;1.25;0.93;;;19.40;56.20;;;;;;6292200;28;20103;-67
2022/11/21 01:08:16;;;;;;;0.82;0.77;;;19.40;56.20;;;;;;6311577;28;20389;-67
2022/11/21 01:11:19;;;;;;;1.10;0.95;;;19.40;56.20;;;;;;6300934;28;20470;-67
2022/11/21 01:14:19;;;;;;;1.05;0.82;;;19.40;56.20;;;;;;6317211;28;20067;-66
2022/11/21 01:17:20;;;;;;;1.17;0.82;;;19.40;56.20;;;;;;6306552;28;20027;-66
2022/11/21 01:20:20;;;;;;;1.63;1.10;;;19.40;56.30;;;;;;6291663;28;20382;-65
2022/11/21 01:23:21;;;;;;;1.27;0.88;;;19.40;56.20;;;;;;6310622;28;20032;-66
2022/11/21 01:26:24;;;;;;;2.60;1.02;;;19.40;56.20;;;;;;6315390;28;20490;-67
2022/11/21 01:29:26;;;;;;;1.50;0.98;;;19.40;56.20;;;;;;6291897;28;20052;-65
2022/11/21 01:32:27;;;;;;;1.02;0.90;;;19.40;56.20;;;;;;6300619;28;20467;-66
2022/11/21 01:35:27;;;;;;;1.02;0.93;;;19.40;56.90;;;;;;6316714;28;20111;-67
2022/11/21 01:38:28;;;;;;;1.10;0.88;;;19.40;56.20;;;;;;6300169;28;20029;-66
2022/11/21 01:41:49;;;;;;;1.75;0.93;;;19.40;56.10;;;;;;6291070;28;20395;-66
2022/11/21 01:44:52;;;;;;;1.77;1.00;;;19.40;56.20;;;;;;6291093;28;20124;-65
2022/11/21 01:47:53;;;;;;;1.08;0.98;;;19.40;56.20;;;;;;6302731;28;20031;-67
2022/11/21 01:50:58;;;;;;;0.98;0.77;;;19.40;56.20;;;;;;6316649;28;20028;-67
2022/11/21 01:54:23;;;;;;;1.05;0.95;;;19.40;56.90;;;;;;6296783;28;20403;-67
2022/11/21 01:57:30;;;;;;;1.52;1.08;;;19.40;56.10;;;;;;6296821;28;20103;-67
2022/11/21 02:00:36;;;;;;;1.95;1.25;;;19.40;56.20;;;;;;6317466;28;20027;-67
2022/11/21 02:03:38;;;;;;;1.17;0.88;;;19.40;56.20;;;;;;6306071;28;20076;-67
2022/11/21 02:06:39;;;;;;;1.33;1.05;;;19.40;56.20;;;;;;6296107;28;20048;-67
2022/11/21 02:09:44;;;;;;;1.15;1.00;;;19.40;56.20;;;;;;6314114;28;20488;-67
2022/11/21 02:12:49;;;;;;;1.23;1.10;;;19.40;56.20;;;;;;6301437;28;20493;-66
2022/11/21 02:15:50;;;;;;;1.20;0.93;;;19.40;56.20;;;;;;6320592;28;20020;-67
2022/11/21 02:18:51;;;;;;;1.10;0.88;;;19.40;56.20;;;;;;6305852;28;20030;-66
2022/11/21 02:22:10;;;;;;;1.27;1.10;;;19.40;56.20;;;;;;6295135;28;20020;-67
2022/11/21 02:25:17;;;;;;;1.63;1.05;;;19.40;56.10;;;;;;6295308;28;20483;-67
2022/11/21 02:28:22;;;;;;;0.95;0.80;;;19.40;56.20;;;;;;6303850;28;20425;-65
2022/11/21 02:31:22;;;;;;;;;;;19.40;56.20;;;;;;6320448;28;20024;-67
2022/11/21 02:34:23;;;;;;;1.20;1.00;;;19.30;56.10;;;;;;6303090;28;19912;-66
2022/11/21 02:37:24;;;;;;;1.08;0.88;;;19.40;56.20;;;;;;6295153;28;20021;-67
2022/11/21 02:40:30;;;;;;;1.50;1.10;;;19.40;56.20;;;;;;6320549;28;20024;-66
2022/11/21 02:43:38;;;;;;;1.00;0.90;;;19.40;56.20;;;;;;6311008;28;20044;-66
2022/11/21 02:46:48;;;;;;;1.75;1.00;;;19.40;56.20;;;;;;6295055;28;20064;-67
2022/11/21 02:49:59;;;;;;;1.33;1.10;;;19.40;56.20;;;;;;6313366;28;20024;-65
2022/11/21 02:53:00;;;;;;;1.27;1.00;;;19.40;56.20;;;;;;6317020;28;20502;-67
2022/11/21 02:56:00;;;;;;;1.40;1.10;;;19.40;56.30;;;;;;6294512;28;20024;-66
2022/11/21 02:59:01;;;;;;;1.33;1.10;;;19.40;56.20;;;;;;6305056;28;20116;-66
2022/11/21 03:02:02;;;;;;;1.73;1.02;;;19.40;56.20;;;;;;6319501;28;20059;-67
2022/11/21 03:05:04;;;;;;;1.10;0.90;;;19.40;56.10;;;;;;6300914;28;20268;-67
2022/11/21 03:08:05;;;;;;;0.90;0.85;;;19.40;56.10;;;;;;6296027;28;20091;-67
2022/11/21 03:11:06;;;;;;;1.25;0.90;;;19.40;56.20;;;;;;6302172;28;20024;-66
2022/11/21 03:14:06;;;;;;;1.70;1.40;;;19.40;56.20;;;;;;6303259;28;20031;-67
2022/11/21 03:17:07;;;;;;;1.60;1.00;;;19.40;56.10;;;;;;6319389;28;20492;-67
2022/11/21 03:20:08;;;;;;;0.88;0.80;;;19.40;56.20;;;;;;6302510;28;20040;-66
2022/11/21 03:23:09;;;;;;;1.35;1.10;;;19.40;56.20;;;;;;6293561;28;20480;-67
2022/11/21 03:26:09;;;;;;;0.70;0.70;;;19.40;56.20;;;;;;6318722;28;20070;-65
2022/11/21 03:29:10;;;;;;;1.73;1.10;;;19.40;56.10;;;;;;6311463;28;20025;-65
2022/11/21 03:32:11;;;;;;;1.33;1.10;;;19.40;56.20;;;;;;6294105;28;20816;-67
2022/11/21 03:35:11;;;;;;;1.00;0.90;;;19.40;56.10;;;;;;6308936;28;20517;-67
2022/11/21 03:38:12;;;;;;;1.95;1.30;;;19.40;56.80;;;;;;6318823;28;20028;-66
2022/11/21 03:41:28;;;;;;;1.13;0.93;;;19.40;56.10;;;;;;6295533;28;20337;-67
2022/11/21 03:44:29;;;;;;;1.25;1.00;;;19.40;56.20;;;;;;6301697;28;20023;-66
2022/11/21 03:47:29;;;;;;;1.70;1.23;;;19.40;56.20;;;;;;6318998;28;20028;-67
2022/11/21 03:50:30;;;;;;;2.10;1.10;;;19.40;56.20;;;;;;6302816;28;20487;-67
2022/11/21 03:53:30;;;;;;;1.15;1.00;;;19.40;56.20;;;;;;6292784;28;20127;-67
2022/11/21 03:56:31;;;;;;;1.33;1.00;;;19.40;56.10;;;;;;6316391;28;20382;-67
2022/11/21 03:59:32;;;;;;;1.50;1.10;;;19.40;56.20;;;;;;6311994;28;20028;-67
2022/11/21 04:02:33;;;;;;;1.80;1.40;;;19.40;56.20;;;;;;6292782;28;20048;-67
2022/11/21 04:05:33;;;;;;;1.40;1.23;;;19.40;56.10;;;;;;6306649;28;20383;-67
2022/11/21 04:08:34;;;;;;;1.45;1.17;;;19.40;56.20;;;;;;6318199;28;20020;-67
2022/11/21 04:11:34;;;;;;;2.08;1.10;;;19.40;56.20;;;;;;6316874;28;20480;-67
2022/11/21 04:14:35;;;;;;;1.20;1.05;;;19.40;56.30;;;;;;6313238;28;20024;-66
2022/11/21 04:17:37;;;;;;;1.50;1.00;;;19.40;56.10;;;;;;6292564;28;20043;-66
2022/11/21 04:20:39;;;;;;;1.50;1.13;;;19.40;56.10;;;;;;6305334;28;20045;-67
2022/11/21 04:23:39;;;;;;;1.10;1.00;;;19.30;56.00;;;;;;6317053;28;20035;-67
2022/11/21 04:26:40;;;;;;;1.48;1.08;;;19.40;56.10;;;;;;6296677;28;20056;-66
2022/11/21 04:29:40;;;;;;;1.20;1.00;;;19.40;56.20;;;;;;6292394;28;20036;-67
2022/11/21 04:32:41;;;;;;;1.80;1.30;;;19.40;56.10;;;;;;6291694;28;20020;-66
2022/11/21 04:35:42;;;;;;;1.83;1.13;;;19.40;56.20;;;;;;6303229;28;20027;-66
2022/11/21 04:38:43;;;;;;;1.67;1.17;;;19.40;56.10;;;;;;6317602;28;20016;-66
2022/11/21 04:41:44;;;;;;;1.33;1.10;;;19.40;56.10;;;;;;6298340;28;20042;-68
2022/11/21 04:44:44;;;;;;;2.00;1.60;;;19.40;56.10;;;;;;6293278;28;20025;-67
2022/11/21 04:47:46;;;;;;;1.20;0.98;;;19.40;56.20;;;;;;6317828;28;20486;-66
2022/11/21 04:50:46;;;;;;;1.25;1.10;;;19.40;56.10;;;;;;6307655;28;20032;-66
2022/11/21 04:53:47;;;;;;;1.33;1.17;;;19.40;56.20;;;;;;6292053;28;20048;-66
2022/11/21 04:56:47;;;;;;;2.72;1.20;;;19.40;56.20;;;;;;6309126;28;20111;-68
2022/11/21 05:00:38;;;;;;;1.60;1.13;;;19.40;56.20;;;;;;6317553;28;20024;-66
2022/11/21 05:03:39;;;;;;;1.40;1.00;;;19.40;56.10;;;;;;6291984;28;20032;-66
2022/11/21 05:06:39;;;;;;;1.50;1.00;;;19.40;56.20;;;;;;6307699;28;20058;-67
2022/11/21 05:09:40;;;;;;;1.75;1.40;;;19.40;56.20;;;;;;6311951;28;20490;-66
2022/11/21 05:16:00;;;;;;;1.70;1.30;;;19.40;56.20;;;;;;6308503;28;20036;-67
2022/11/21 05:19:00;;;;;;;1.70;1.23;;;19.40;56.20;;;;;;6291750;28;20071;-67
2022/11/21 05:22:01;;;;;;;2.50;1.27;;;19.40;56.20;;;;;;6307517;28;20095;-67
2022/11/21 05:25:02;;;;;;;1.48;1.10;;;19.40;56.10;;;;;;6317094;28;20376;-67
2022/11/21 05:28:02;;;;;;;1.40;1.13;;;19.40;56.10;;;;;;6292800;28;20162;-66
2022/11/21 05:31:03;;;;;;;1.90;1.27;;;19.40;56.20;;;;;;6298229;28;20024;-67
2022/11/21 05:34:04;;;;;;;1.88;1.30;;;19.40;56.00;;;;;;6316812;28;20086;-66
2022/11/21 05:37:04;;;;;;;1.92;1.30;;;19.40;56.10;;;;;;6306801;28;20024;-67
2022/11/21 05:40:06;;;;;;;1.92;1.25;;;19.40;56.00;;;;;;6296684;28;20456;-66
2022/11/21 05:46:27;;;;;;;1.70;1.38;;;19.40;56.10;;;;;;6313956;28;20028;-67
2022/11/21 05:49:28;;;;;;;1.55;1.27;;;19.40;56.10;;;;;;6288596;28;20102;-66
2022/11/21 05:52:29;;;;;;;2.03;1.02;;;19.40;56.20;;;;;;6321825;28;20052;-67
2022/11/21 05:55:30;;;;;;;1.60;1.30;;;19.40;56.10;;;;;;6315407;28;20456;-66
2022/11/21 05:58:30;;;;;;;1.52;1.20;;;19.40;56.10;;;;;;6296940;28;20025;-67
2022/11/21 06:04:52;;;;;;;3.35;1.42;;;19.40;56.10;;;;;;6288319;28;20036;-69
2022/11/21 06:07:53;;;;;;;1.80;1.30;;;19.40;56.10;;;;;;6300441;28;20032;-69
2022/11/21 06:10:53;;;;;;;1.67;1.25;;;19.40;56.10;;;;;;6295419;28;20070;-67
2022/11/21 06:13:54;;;;;;;2.70;1.38;;;19.40;56.00;;;;;;6319147;28;20031;-67
2022/11/21 06:16:55;;;;;;;2.30;1.58;;;19.40;56.10;;;;;;6302645;28;20541;-67
2022/11/21 06:19:55;;;;;;;2.38;1.27;;;19.40;56.00;;;;;;6289363;28;20021;-67
2022/11/21 06:22:56;;;;;;;1.75;1.40;;;19.40;56.10;;;;;;6300523;28;20070;-67
2022/11/21 06:25:58;;;;;;;2.17;1.50;;;19.40;56.10;;;;;;6303808;28;20300;-67
2022/11/21 06:28:58;;;;;;;4.45;1.30;;;19.40;56.00;;;;;;6317617;28;20020;-66
2022/11/21 06:31:59;;;;;;;1.60;1.30;;;19.40;56.00;;;;;;6306075;28;20368;-67
2022/11/21 06:34:59;;;;;;;2.65;1.58;;;19.50;56.10;;;;;;6289274;28;20089;-67
2022/11/21 06:38:00;;;;;;;1.80;1.50;;;19.40;55.90;;;;;;6293232;28;20106;-66
2022/11/21 06:41:06;;;;;;;2.03;1.52;;;19.50;56.20;;;;;;6286456;28;20028;-68
2022/11/21 06:44:06;;;;;;;2.00;1.50;;;19.50;56.20;;;;;;6299567;28;20119;-67
2022/11/21 06:47:07;;;;;;;2.55;1.42;;;19.50;56.20;;;;;;6298370;28;20574;-67
2022/11/21 06:50:08;;;;;;;2.15;1.30;;;19.50;56.20;;;;;;6288434;28;20029;-67
2022/11/21 06:53:09;;;;;;;2.33;1.45;;;19.50;56.20;;;;;;6289668;28;20048;-67
2022/11/21 06:56:10;;;;;;;2.55;1.40;;;19.50;56.20;;;;;;6302656;28;20121;-67
2022/11/21 06:59:10;;;;;;;2.33;1.50;;;19.50;56.20;;;;;;6299032;28;20094;-67
2022/11/21 07:02:12;;;;;;;6.82;1.50;;;19.50;56.20;;;;;;6302547;28;20027;-67
2022/11/21 07:05:12;;;;;;;2.50;1.77;;;19.50;56.30;;;;;;6275534;28;20495;-67
2022/11/21 07:08:13;;;;;;;1.77;1.35;;;19.50;56.30;;;;;;6309152;28;20055;-66
2022/11/21 07:11:14;;;;;;;1.88;1.30;;;19.50;56.30;;;;;;6296217;28;20024;-68
2022/11/21 07:14:16;;;;;;;1.67;1.20;;;19.50;56.30;;;;;;6300813;28;20032;-67
2022/11/21 07:17:16;;;;;;;2.33;1.60;;;19.50;56.30;;;;;;6289118;28;20392;-67
2022/11/21 07:20:17;;;;;;;1.45;1.30;;;19.50;56.30;;;;;;6320894;28;20074;-67
2022/11/21 07:23:17;;;;;;;1.80;1.40;;;19.50;56.40;;;;;;6306386;28;20470;-67
2022/11/21 07:26:18;;;;;;;2.15;1.60;;;19.50;56.40;;;;;;6320260;28;20024;-67
2022/11/21 07:29:19;;;;;;;4.55;1.75;;;19.40;56.30;;;;;;6302843;28;20025;-68
2022/11/21 07:32:19;;;;;;;2.47;1.70;;;19.50;56.40;;;;;;6303183;28;20115;-67
2022/11/21 07:35:20;;;;;;;3.15;1.90;;;19.50;56.50;;;;;;6295126;28;20036;-67
2022/11/21 07:38:20;;;;;;;2.47;1.77;;;19.50;56.50;;;;;;6302974;28;20118;-66
2022/11/21 07:41:21;;;;;;;2.67;1.40;;;19.50;56.50;;;;;;6315236;28;20090;-67
2022/11/21 07:44:21;;;;;;;1.73;1.40;;;19.50;56.50;;;;;;6310686;28;20032;-68
2022/11/21 07:47:22;;;;;;;3.45;1.88;;;19.50;56.50;;;;;;6307959;28;20094;-66
2022/11/21 07:50:22;;;;;;;3.00;1.85;;;19.50;56.50;;;;;;6318377;28;20364;-68
2022/11/21 07:53:23;;;;;;;3.55;1.30;;;19.50;56.50;;;;;;6304971;28;20119;-68
2022/11/21 07:56:25;;;;;;;3.50;1.55;;;19.50;56.50;;;;;;6317014;28;20033;-67
2022/11/21 07:59:26;;;;;;;2.33;1.60;;;19.50;56.50;;;;;;6308052;28;20150;-67
2022/11/21 08:02:27;;;;;;;2.33;1.63;;;19.50;56.50;;;;;;6309856;28;20353;-67
2022/11/21 08:05:28;;;;;;;2.78;1.80;;;19.50;56.40;;;;;;6316684;28;20034;-67
2022/11/21 08:08:29;;;;;;;2.88;1.88;;;19.50;56.40;;;;;;6305458;28;20028;-67
2022/11/21 08:11:31;;;;;;;2.20;1.67;;;19.50;56.40;;;;;;6308648;28;20027;-67
2022/11/21 08:14:32;;;;;;;2.58;1.73;;;19.50;56.40;;;;;;6307579;28;20376;-67
2022/11/21 08:17:33;;;;;;;13.75;2.05;;;19.50;56.40;;;;;;6309451;28;20577;-67
2022/11/21 08:20:33;;;;;;;2.63;1.67;;;19.50;56.40;;;;;;6315082;28;20032;-68
2022/11/21 08:23:34;;;;;;;5.65;1.65;;;19.50;56.40;;;;;;6304197;28;20479;-67
2022/11/21 08:26:34;;;;;;;2.80;1.55;;;19.50;56.50;;;;;;6319093;28;20027;-67
2022/11/21 08:29:35;;;;;;;5.35;1.75;;;19.50;56.50;;;;;;6296893;28;20103;-67
2022/11/21 08:32:36;;;;;;;2.88;1.92;;;19.50;56.50;;;;;;6293906;28;20021;-68
2022/11/21 08:35:37;;;;;;;3.03;1.75;;;19.50;56.60;;;;;;6300900;28;20044;-67
2022/11/21 08:38:38;;;;;;;2.45;1.67;;;19.50;56.60;;;;;;6317586;28;20036;-68
2022/11/21 08:44:57;;;;;;;2.95;2.00;;;19.50;56.60;;;;;;6306083;28;20479;-67
2022/11/21 08:47:58;;;;;;;4.65;1.95;;;19.50;56.60;;;;;;6319159;28;20032;-67
2022/11/21 08:50:59;;;;;;;2.88;1.65;;;19.50;56.60;;;;;;6307641;28;20054;-67
2022/11/21 08:54:00;;;;;;;3.55;1.70;;;19.50;56.60;;;;;;6297225;28;20052;-67
2022/11/21 08:57:01;;;;;;;2.55;1.98;;;19.50;56.60;;;;;;6311231;28;20467;-68
2022/11/21 09:00:02;;;;;;;5.95;1.75;;;19.50;56.60;;;;;;6307420;28;20183;-67
2022/11/21 09:03:04;;;;;;;4.50;2.28;;;19.50;56.60;;;;;;6293095;28;20047;-67
2022/11/21 09:06:05;;;;;;;3.38;1.70;;;19.50;56.70;;;;;;6311821;28;20016;-67
2022/11/21 09:09:06;;;;;;;2.95;1.70;;;19.50;56.70;;;;;;6305963;28;20430;-67
2022/11/21 09:12:07;;;;;;;4.25;1.60;;;19.50;56.70;;;;;;6298326;28;20407;-67
2022/11/21 09:18:28;;;;;;;3.97;2.33;;;19.50;56.70;;;;;;6298018;28;20505;-67
2022/11/21 09:21:29;;;;;;;2.03;1.80;;;19.50;56.70;;;;;;6317574;28;20050;-68
2022/11/21 09:24:29;;;;;;;3.80;1.95;;;19.50;56.70;;;;;;6308814;28;20033;-68
2022/11/21 09:27:30;;;;;;;5.93;2.03;;;19.50;56.70;;;;;;6322976;28;20089;-67
2022/11/21 09:30:30;;;;;;;3.47;1.80;;;19.50;56.70;;;;;;6308351;28;20024;-69
2022/11/21 09:33:31;;;;;;;2.97;1.90;;;19.50;56.70;;;;;;6315583;28;20352;-67
2022/11/21 09:36:32;;;;;;;3.58;2.03;;;19.50;56.70;;;;;;6315797;28;20058;-67
2022/11/21 09:39:33;;;;;;;3.47;1.80;;;19.50;56.70;;;;;;6322141;28;20032;-67
2022/11/21 09:42:51;;;;;;;2.33;1.55;;;19.50;56.60;;;;;;6297028;28;20020;-67
2022/11/21 09:46:14;;;;;;;2.88;1.90;;;19.50;56.60;;;;;;6308256;28;20130;-67
2022/11/21 09:49:16;;;;;;;5.40;2.20;;;19.50;56.60;;;;;;6310727;28;20017;-66
2022/11/21 09:52:20;;;;;;;3.00;2.05;;;19.50;56.60;;;;;;6315536;28;20075;-67
2022/11/21 09:55:34;;;;;;;2.60;1.90;;;19.50;56.70;;;;;;6311869;28;20025;-66
2022/11/21 09:58:59;;;;;;;3.70;2.00;;;19.50;56.70;;;;;;6297474;28;20052;-67
2022/11/21 10:02:00;;;;;;;2.85;1.80;;;19.50;56.70;;;;;;6315286;28;20020;-67
2022/11/21 10:05:01;;;;;;;2.15;1.70;;;19.50;56.70;;;;;;6307229;28;20375;-67
2022/11/21 10:08:14;;;;;;;2.17;1.30;;;19.50;56.70;;;;;;6322367;28;20154;-67
2022/11/21 10:12:35;;;;;;;2.55;1.80;;;19.50;56.70;;;;;;6292708;28;20126;-67
2022/11/21 10:15:26;;;;;;;2.00;1.60;;;19.50;56.70;;;;;;6284660;28;20411;-67
2022/11/21 10:18:51;;;;;;;1.90;1.60;;;19.50;56.70;;;;;;6285449;28;20548;-66
2022/11/21 10:22:19;;;;;;;;;;;19.40;56.70;;;;;;6311811;28;20024;-68
2022/11/21 10:25:31;;;;;;;4.43;2.03;;;19.50;56.50;;;;;;6320843;28;19904;-68
2022/11/21 10:28:50;;;;;;;3.72;2.17;;;19.50;56.30;;;;;;6297001;28;20017;-68
2022/11/21 10:31:54;;;;;;;2.38;1.80;;;19.50;56.30;;;;;;6310004;28;20043;-67
2022/11/21 10:35:00;;;;;;;3.17;1.92;;;19.50;56.50;;;;;;6322230;28;20039;-66
2022/11/21 10:38:10;;;;;;;4.55;1.70;;;19.50;56.50;;;;;;6300008;28;20032;-67
2022/11/21 10:41:18;;;;;;;3.15;1.73;;;19.50;56.30;;;;;;6303251;28;20024;-67
2022/11/21 10:47:50;;;;;;;2.80;2.10;;;19.50;56.50;;;;;;6302840;28;20020;-68
2022/11/21 10:51:17;;;;;;;2.95;1.80;;;19.50;56.40;;;;;;6298681;28;20039;-68
2022/11/21 10:54:33;;;;;;;2.17;1.70;;;19.50;56.30;;;;;;6321810;28;20048;-68
2022/11/21 10:57:53;;;;;;;2.38;1.70;;;19.50;56.40;;;;;;6306186;28;20024;-67
2022/11/21 11:00:57;;;;;;;2.33;1.70;;;19.50;56.30;;;;;;6298209;28;20027;-67
2022/11/21 11:04:08;;;;;;;2.58;1.33;;;19.50;56.40;;;;;;6321493;28;20107;-67
2022/11/21 11:07:26;;;;;;;2.70;1.65;;;19.50;56.30;;;;;;6311280;28;20024;-68
2022/11/21 11:10:28;;;;;;;2.58;1.60;;;19.50;56.30;;;;;;6307503;28;20135;-67
2022/11/21 11:13:35;;;;;;;2.22;1.80;;;19.50;56.40;;;;;;6300277;28;20020;-67
2022/11/21 11:16:36;;;;;;;2.35;1.75;;;19.50;56.30;;;;;;6300322;28;20378;-68
2022/11/21 11:19:36;;;;;;;2.50;1.70;;;19.50;56.30;;;;;;6321500;28;20031;-67
2022/11/21 11:22:37;;;;;;;1.83;1.50;;;19.50;56.40;;;;;;6290174;28;20058;-66
2022/11/21 11:25:37;;;;;;;2.45;1.60;;;19.50;56.40;;;;;;6296116;28;20032;-67
2022/11/21 11:28:38;;;;;;;1.92;1.70;;;19.50;56.30;;;;;;6316336;28;20121;-67
2022/11/21 11:31:43;;;;;;;2.55;1.52;;;19.50;56.30;;;;;;6318104;28;20020;-67
2022/11/21 11:35:00;;;;;;;1.90;1.40;;;19.50;56.30;;;;;;6295462;28;20522;-67
2022/11/21 11:38:02;;;;;;;2.60;1.63;;;19.50;56.30;;;;;;6309359;28;20020;-68
2022/11/21 11:41:29;;;;;;;2.22;1.58;;;19.50;56.40;;;;;;6321019;28;20035;-67
2022/11/21 11:48:11;;;;;;;1.58;1.30;;;19.50;56.30;;;;;;6308727;28;20020;-67
2022/11/21 11:51:24;;;;;;;1.70;1.48;;;19.50;56.30;;;;;;6320962;28;20286;-68
2022/11/21 11:54:41;;;;;;;2.05;1.52;;;19.50;56.40;;;;;;6297018;28;20138;-68
2022/11/21 11:57:43;;;;;;;2.35;1.52;;;19.50;56.30;;;;;;6304125;28;20042;-68
2022/11/21 12:00:59;;;;;;;2.00;1.55;;;19.50;56.40;;;;;;6320531;28;20067;-67
2022/11/21 12:04:13;;;;;;;3.65;1.73;;;19.50;56.40;;;;;;6301943;28;20013;-67
2022/11/21 12:07:46;;;;;;;1.50;1.20;;;19.50;56.40;;;;;;6298104;28;20024;-67
2022/11/21 12:18:04;;;;;;;2.10;1.60;;;19.50;56.40;;;;;;6312063;28;20029;-67
2022/11/21 12:21:12;;;;;;;1.90;1.50;;;19.50;56.40;;;;;;6294945;28;20046;-68
2022/11/21 12:24:13;;;;;;;2.08;1.27;;;19.50;56.30;;;;;;6312053;28;20028;-67
2022/11/21 12:27:34;;;;;;;1.75;1.33;;;19.50;56.30;;;;;;6319746;28;20027;-67
2022/11/21 12:31:19;;;;;;;1.70;1.35;;;19.50;56.40;;;;;;6294877;28;20028;-67
2022/11/21 12:34:32;;;;;;;2.13;1.55;;;19.50;56.30;;;;;;6194672;28;20327;-68
2022/11/21 12:37:45;;;;;;;2.03;1.35;;;19.50;56.30;;;;;;6318428;28;20118;-67
2022/11/21 12:42:47;;;;;;;1.60;1.30;;;19.50;56.40;;;;;;6294777;28;20523;-67
2022/11/21 12:44:47;;;;;;;1.50;1.38;;;19.50;56.30;;;;;;6310680;28;20042;-68
2022/11/21 12:55:38;;;;;;;1.88;1.55;;;19.50;56.30;;;;;;6318836;28;20048;-67
2022/11/21 12:58:45;;;;;;;1.60;1.30;;;19.50;56.40;;;;;;6311652;28;20044;-67
2022/11/21 13:01:51;;;;;;;;;;;19.50;56.30;;;;;;6295385;28;20413;-67
2022/11/21 13:04:54;;;;;;;1.42;1.20;;;19.50;56.30;;;;;;6311595;28;19908;-67
2022/11/21 13:08:10;;;;;;;1.73;1.30;;;19.50;56.40;;;;;;6318894;28;20025;-67
2022/11/21 13:15:21;;;;;;;2.75;1.55;;;19.50;56.40;;;;;;6279479;28;20075;-67
2022/11/21 13:18:41;;;;;;;1.80;1.50;;;19.50;56.40;;;;;;6296569;28;20100;-68
2022/11/21 13:21:48;;;;;;;1.30;1.20;;;19.40;56.40;;;;;;6319524;28;20383;-66
2022/11/21 13:24:49;;;;;;;1.70;1.25;;;19.50;56.30;;;;;;6304964;28;20094;-70
2022/11/21 13:27:49;;;;;;;1.85;1.40;;;19.50;56.40;;;;;;6293907;28;20020;-67
2022/11/21 13:30:52;;;;;;;1.60;1.30;;;19.50;56.50;;;;;;6315932;28;20035;-67
2022/11/21 13:33:52;;;;;;;1.45;1.33;;;19.50;56.30;;;;;;6313799;28;20151;-66
2022/11/21 13:36:53;;;;;;;1.33;1.23;;;19.50;56.40;;;;;;6294157;28;20472;-66
2022/11/21 13:40:26;;;;;;;1.52;1.13;;;19.50;56.40;;;;;;6306494;28;20043;-65
2022/11/21 13:43:26;;;;;;;1.52;1.33;;;19.50;56.40;;;;;;6318567;28;20021;-67
2022/11/21 13:46:59;;;;;;;1.83;1.40;;;19.50;56.40;;;;;;6293778;28;20064;-66
2022/11/21 13:50:16;;;;;;;1.73;1.42;;;19.50;56.30;;;;;;6305989;28;20085;-67
2022/11/21 13:53:42;;;;;;;1.50;1.23;;;19.50;56.30;;;;;;6318900;28;20101;-67
2022/11/21 13:57:17;;;;;;;2.13;1.40;;;19.50;56.30;;;;;;6295301;28;20024;-68
2022/11/21 14:00:53;;;;;;;1.52;1.35;;;19.50;56.30;;;;;;6235593;28;20060;-67
2022/11/21 14:04:17;;;;;;;1.70;1.33;;;19.50;56.50;;;;;;6223295;28;20541;-66
2022/11/21 14:07:32;;;;;;;2.45;1.60;;;19.40;56.30;;;;;;6246902;28;20025;-68
2022/11/21 14:10:33;;;;;;;1.97;1.70;;;19.50;56.40;;;;;;6230154;28;20488;-66
2022/11/21 14:13:37;;;;;;;1.70;1.40;;;19.50;56.40;;;;;;6222060;28;20291;-66
2022/11/21 14:16:46;;;;;;;2.10;1.60;;;19.50;56.40;;;;;;6241407;28;20502;-68
2022/11/21 14:19:47;;;;;;;3.33;1.80;;;19.50;56.40;;;;;;6240687;28;21041;-67
2022/11/21 14:23:02;;;;;;;2.03;1.45;;;19.40;56.20;;;;;;6237824;28;20025;-67
2022/11/21 14:26:10;;;;;;;2.22;1.52;;;19.50;56.30;;;;;;6244856;28;20025;-67
2022/11/21 14:29:18;;;;;;;3.28;1.85;;;19.40;56.30;;;;;;6245375;28;20033;-66
2022/11/21 14:32:28;;;;;;;2.13;1.58;;;19.40;56.10;;;;;;6216787;28;20121;-67
2022/11/21 14:35:30;;;;;;;2.97;1.70;;;19.50;56.20;;;;;;6224360;28;20026;-67
2022/11/21 14:38:39;;;;;;;3.17;2.10;;;19.50;56.30;;;;;;6221821;28;20040;-67
2022/11/21 14:41:41;;;;;;;3.75;1.73;;;19.50;56.10;;;;;;6222015;28;20018;-66
2022/11/21 14:44:42;;;;;;;8.13;1.60;;;19.50;56.20;;;;;;6221491;28;20109;-65
2022/11/21 14:47:48;;;;;;;2.90;1.40;;;19.50;56.20;;;;;;6221560;28;20500;-66
2022/11/21 14:50:49;;;;;;;2.47;1.60;;;19.50;56.10;;;;;;6231748;28;20022;-65
2022/11/21 14:53:54;;;;;;;2.00;1.63;;;19.50;56.30;;;;;;6232782;28;20096;-67
2022/11/21 14:56:59;;;;;;;;;;;19.50;56.30;;;;;;6240683;28;20092;-67
2022/11/21 15:00:00;;;;;;;3.72;1.70;;;19.50;56.20;;;;;;6243907;28;19909;-66
2022/11/21 15:03:01;;;;;;;3.63;1.80;;;19.50;56.30;;;;;;6220817;28;20040;-66
2022/11/21 15:06:04;;;;;;;2.22;1.50;;;19.50;56.20;;;;;;6219614;28;20057;-67
2022/11/21 15:09:05;;;;;;;2.55;1.70;;;19.50;56.30;;;;;;6236314;28;20028;-65
2022/11/21 15:12:08;;;;;;;2.70;1.88;;;19.50;56.30;;;;;;6227748;28;20022;-66
2022/11/21 15:15:39;;;;;;;7.20;1.85;;;19.50;56.30;;;;;;6222009;28;20026;-67
2022/11/21 15:18:41;;;;;;;4.38;1.58;;;19.50;56.30;;;;;;6220598;28;20029;-67
2022/11/21 15:21:45;;;;;;;2.50;1.50;;;19.50;56.30;;;;;;6234227;28;20488;-66
2022/11/21 15:24:45;;;;;;;6.88;1.73;;;19.50;56.20;;;;;;6244626;28;20060;-69
2022/11/21 15:28:08;;;;;;;5.03;2.40;;;19.50;56.40;;;;;;6224135;28;20091;-68
2022/11/21 15:31:19;;;;;;;10.68;4.68;;;19.40;56.30;;;;;;6227333;28;20079;-68
2022/11/21 15:34:26;;;;;;;9.73;2.90;;;19.40;54.80;;;;;;6244903;28;20030;-68
2022/11/21 15:37:27;;;;;;;4.75;2.67;;;19.40;53.50;;;;;;6227810;28;20033;-68
2022/11/21 15:40:27;;;;;;;5.95;3.17;;;19.30;55.00;;;;;;6220093;28;20544;-69
2022/11/21 15:43:37;;;;;;;7.40;3.80;;;19.30;55.10;;;;;;6219760;28;20026;-68
2022/11/21 15:46:41;;;;;;;12.63;4.22;;;19.30;55.00;;;;;;6220384;28;20137;-68
2022/11/21 15:49:41;;;;;;;8.68;4.95;;;19.20;54.00;;;;;;6220041;28;20026;-69
2022/11/21 15:52:47;;;;;;;8.48;4.00;;;19.20;52.60;;;;;;6219736;28;20700;-68
2022/11/21 15:55:48;;;;;;;8.93;4.88;;;19.20;52.90;;;;;;6220349;28;20346;-68
2022/11/21 15:58:49;;;;;;;7.22;4.63;;;19.20;51.70;;;;;;6244493;28;20072;-67
2022/11/21 16:01:49;;;;;;;8.23;4.25;;;19.20;48.90;;;;;;6235503;28;20117;-69
2022/11/21 16:04:51;;;;;;;6.88;4.22;;;19.20;52.40;;;;;;6219535;28;20024;-68
2022/11/21 16:07:52;;;;;;;9.00;4.32;;;19.20;48.50;;;;;;6236388;28;20472;-68
2022/11/21 16:10:52;;;;;;;7.72;4.05;;;19.20;48.20;;;;;;6229371;28;20029;-68
2022/11/21 16:14:01;;;;;;;6.63;3.80;;;19.30;48.90;;;;;;6241315;28;20036;-67
2022/11/21 16:17:02;;;;;;;8.32;4.07;;;19.30;49.50;;;;;;6220013;28;20033;-68
2022/11/21 16:20:03;;;;;;;6.72;3.60;;;19.30;49.70;;;;;;6218714;28;20018;-68
2022/11/21 16:23:04;;;;;;;14.63;5.53;;;19.30;50.00;;;;;;6226558;28;20034;-68
2022/11/21 16:26:06;;;;;;;12.43;5.60;;;19.30;50.20;;;;;;6219094;28;20014;-68
2022/11/21 16:29:09;;;;;;;16.23;7.25;;;19.30;50.60;;;;;;6242902;28;20026;-69
2022/11/21 16:32:09;;;;;;;16.67;7.18;;;19.30;50.80;;;;;;6235700;28;20053;-69
2022/11/21 16:35:10;;;;;;;18.33;7.30;;;19.30;51.10;;;;;;6218565;28;20362;-68
2022/11/21 16:38:11;;;;;;;16.33;7.07;;;19.30;51.60;;;;;;6233894;28;20025;-69
2022/11/21 16:41:12;;;;;;;16.33;7.47;;;19.30;51.60;;;;;;6243865;28;20515;-69
2022/11/21 16:44:14;;;;;;;18.40;8.00;;;19.30;51.80;;;;;;6220188;28;20026;-68
2022/11/21 16:47:15;;;;;;;19.77;8.25;;;19.30;51.90;;;;;;6225207;28;20025;-68